Vestimar — 5IM835 — position and weather

sailwx.info

Track history (hours):
 
Tides and Currents Weather Stations Pressure Air Temp Water Temp Dewpoint Dewpoint Depression Visibility Wind Speed Wind Dir Waves Ship Positions

Vestimar

Last reported at 2018-Apr-29 11:06 UTC. Time now 2018-Jun-22 22:59 UTC.
Position N 40°59' E 028°60'.
Warning: this ship's position is 54 days out of date.

Length 114 m; draft 2.8 m.

Type: Cargo ship. MMSI: 677073500.

Date/timePositionNaut miles runAvg speedWind from/ knotsBaromVisibWave heightAir tempDewpointWater temp
2018-Apr-29 11:06N 40°59' E 028°60'0 4.4
2018-Apr-29 11:00N 40°58' E 028°60'2 4.4
2018-Apr-29 10:29N 40°56' E 028°60'4 6.0
2018-Apr-29 09:45N 40°52' E 029°03'2 7.8
2018-Apr-29 09:30N 40°51' E 029°05'3 6.3
2018-Apr-29 09:00N 40°51' E 029°09'2 4.3
2018-Apr-29 08:26N 40°52' E 029°11'0 0.1
2018-Apr-29 08:00N 40°52' E 029°11'0 0.1
2018-Apr-29 07:21N 40°52' E 029°11'0 0.0
2018-Apr-29 06:57N 40°52' E 029°11'0 0.0
2018-Apr-29 06:09N 40°52' E 029°11'0 0.0
2018-Apr-29 05:09N 40°52' E 029°11'0 0.0
2018-Apr-29 04:57N 40°52' E 029°11'0 0.0
2018-Apr-29 04:21N 40°52' E 029°11'0 0.0
2018-Apr-29 03:51N 40°52' E 029°11'0 0.1
2018-Apr-29 03:27N 40°52' E 029°11'0 0.0
2018-Apr-29 02:57N 40°52' E 029°11'0 0.0
2018-Apr-29 01:39N 40°52' E 029°11'0 0.2
2018-Apr-29 01:27N 40°52' E 029°11'1 2.5
2018-Apr-29 01:00N 40°51' E 029°10'4 7.3
2018-Apr-29 00:31N 40°48' E 029°07'4 7.2
2018-Apr-28 23:59N 40°47' E 029°03'6 7.0
2018-Apr-28 23:04N 40°44' E 028°56'2 6.8
2018-Apr-28 22:50N 40°43' E 028°54'18 4.9
2018-Apr-28 19:11N 40°26' E 028°60'2 6.7
2018-Apr-28 18:57N 40°25' E 029°02'  
2018-Apr-21 07:06N 45°18' E 036°29'1 8.3
2018-Apr-21 07:00N 45°19' E 036°30'4 8.3
2018-Apr-21 06:30N 45°20' E 036°36'4 7.6
2018-Apr-21 06:00N 45°23' E 036°40'4 7.7
2018-Apr-21 05:30N 45°26' E 036°40'2 3.9
2018-Apr-21 05:00N 45°28' E 036°39'0 0.0
2018-Apr-21 02:19N 45°28' E 036°39'0 0.0
2018-Apr-21 02:00N 45°28' E 036°39'0 0.1
2018-Apr-21 01:29N 45°28' E 036°39'1 3.0
2018-Apr-21 01:00N 45°29' E 036°40'  
Track history (hours):
 
Tides and Currents Weather Stations Pressure Air Temp Water Temp Dewpoint Dewpoint Depression Visibility Wind Speed Wind Dir Waves Ship Positions

Vestimar

Last reported at 2018-Apr-29 11:06 UTC. Time now 2018-Jun-22 22:59 UTC.
Position N 40°59' E 028°60'.
Warning: this ship's position is 54 days out of date.

Length 114 m; draft 2.8 m.

Type: Cargo ship. MMSI: 677073500.

Date/timePositionNaut miles runAvg speedWind from/ knotsBaromVisibWave heightAir tempDewpointWater temp
2018-Apr-29 11:06N 40°59' E 028°60'0 4.4
2018-Apr-29 11:00N 40°58' E 028°60'2 4.4
2018-Apr-29 10:29N 40°56' E 028°60'4 6.0
2018-Apr-29 09:45N 40°52' E 029°03'2 7.8
2018-Apr-29 09:30N 40°51' E 029°05'3 6.3
2018-Apr-29 09:00N 40°51' E 029°09'2 4.3
2018-Apr-29 08:26N 40°52' E 029°11'0 0.1
2018-Apr-29 08:00N 40°52' E 029°11'0 0.1
2018-Apr-29 07:21N 40°52' E 029°11'0 0.0
2018-Apr-29 06:57N 40°52' E 029°11'0 0.0
2018-Apr-29 06:09N 40°52' E 029°11'0 0.0
2018-Apr-29 05:09N 40°52' E 029°11'0 0.0
2018-Apr-29 04:57N 40°52' E 029°11'0 0.0
2018-Apr-29 04:21N 40°52' E 029°11'0 0.0
2018-Apr-29 03:51N 40°52' E 029°11'0 0.1
2018-Apr-29 03:27N 40°52' E 029°11'0 0.0
2018-Apr-29 02:57N 40°52' E 029°11'0 0.0
2018-Apr-29 01:39N 40°52' E 029°11'0 0.2
2018-Apr-29 01:27N 40°52' E 029°11'1 2.5
2018-Apr-29 01:00N 40°51' E 029°10'4 7.3
2018-Apr-29 00:31N 40°48' E 029°07'4 7.2
2018-Apr-28 23:59N 40°47' E 029°03'6 7.0
2018-Apr-28 23:04N 40°44' E 028°56'2 6.8
2018-Apr-28 22:50N 40°43' E 028°54'18 4.9
2018-Apr-28 19:11N 40°26' E 028°60'2 6.7
2018-Apr-28 18:57N 40°25' E 029°02'  
2018-Apr-21 07:06N 45°18' E 036°29'1 8.3
2018-Apr-21 07:00N 45°19' E 036°30'4 8.3
2018-Apr-21 06:30N 45°20' E 036°36'4 7.6
2018-Apr-21 06:00N 45°23' E 036°40'4 7.7
2018-Apr-21 05:30N 45°26' E 036°40'2 3.9
2018-Apr-21 05:00N 45°28' E 036°39'0 0.0
2018-Apr-21 02:19N 45°28' E 036°39'0 0.0
2018-Apr-21 02:00N 45°28' E 036°39'0 0.1
2018-Apr-21 01:29N 45°28' E 036°39'1 3.0
2018-Apr-21 01:00N 45°29' E 036°40'  

Dump ship's entire track history